Time;durP1;ratioP1;P1;durP2;ratioP2;P2;SDS_P1;SDS_P2;PMS_P1;PMS_P2;Temp;Humidity;BMP_temperature;BMP_pressure;BME280_temperature;BME280_humidity;BME280_pressure;Samples;Min_cycle;Max_cycle;Signal;HPM_P1;HPM_P2
2023/04/16 00:01:07;;;;;;;18.30;14.27;;;7.20;99.90;;;;;;5041449;28;20033;-81
2023/04/16 00:03:33;;;;;;;19.27;15.25;;;7.20;99.90;;;;;;5044026;28;20408;-82
2023/04/16 00:05:59;;;;;;;19.90;16.15;;;7.20;99.90;;;;;;5046174;28;20032;-81
2023/04/16 00:08:25;;;;;;;22.73;14.75;;;7.20;99.90;;;;;;5046305;28;20021;-81
2023/04/16 00:10:52;;;;;;;23.00;14.50;;;7.20;99.90;;;;;;5045223;28;20098;-82
2023/04/16 00:13:17;;;;;;;18.05;14.38;;;7.20;99.90;;;;;;5040377;28;20029;-81
2023/04/16 00:15:43;;;;;;;21.90;15.00;;;7.20;99.90;;;;;;5046709;28;20155;-80
2023/04/16 00:18:09;;;;;;;20.27;15.73;;;7.20;99.90;;;;;;5043875;28;20026;-81
2023/04/16 00:20:34;;;;;;;17.42;14.13;;;7.20;99.90;;;;;;5045125;28;20028;-81
2023/04/16 00:23:00;;;;;;;19.65;14.52;;;7.20;99.90;;;;;;5047130;28;20036;-80
2023/04/16 00:25:25;;;;;;;19.20;14.15;;;7.20;99.90;;;;;;5037379;28;20755;-81
2023/04/16 00:27:51;;;;;;;18.13;14.80;;;7.20;99.90;;;;;;5047967;28;20025;-81
2023/04/16 00:30:16;;;;;;;18.58;14.45;;;7.20;99.90;;;;;;5047614;28;20017;-81
2023/04/16 00:32:42;;;;;;;18.70;14.18;;;7.20;99.90;;;;;;5040894;28;20018;-82
2023/04/16 00:35:08;;;;;;;18.58;14.55;;;7.20;99.90;;;;;;5040890;28;20057;-82
2023/04/16 00:37:33;;;;;;;19.83;14.38;;;7.20;99.90;;;;;;5047663;28;20531;-81
2023/04/16 00:39:59;;;;;;;17.00;13.50;;;7.20;99.90;;;;;;5040200;28;20028;-82
2023/04/16 00:42:25;;;;;;;16.05;14.13;;;7.20;99.90;;;;;;5051511;28;20005;-82
2023/04/16 00:44:50;;;;;;;19.75;14.63;;;7.30;99.90;;;;;;5066591;28;20048;-82
2023/04/16 00:47:16;;;;;;;21.70;14.38;;;7.30;99.90;;;;;;5054688;28;20028;-82
2023/04/16 00:49:42;;;;;;;22.45;15.68;;;7.30;99.90;;;;;;5043122;28;20030;-82
2023/04/16 00:52:10;;;;;;;19.33;15.07;;;7.30;99.90;;;;;;5051982;28;20033;-81
2023/04/16 00:54:35;;;;;;;18.67;14.50;;;7.30;99.90;;;;;;5038520;28;20033;-82
2023/04/16 00:57:01;;;;;;;19.73;14.13;;;7.30;99.90;;;;;;5049928;28;20029;-82
2023/04/16 00:59:28;;;;;;;20.67;14.43;;;7.30;99.90;;;;;;5044146;28;20059;-82
2023/04/16 01:01:53;;;;;;;23.75;14.50;;;7.30;99.90;;;;;;5039013;28;20366;-82
2023/04/16 01:04:19;;;;;;;18.73;14.50;;;7.30;99.90;;;;;;5045333;28;20017;-82
2023/04/16 01:06:45;;;;;;;19.55;14.43;;;7.30;99.90;;;;;;5051083;28;20028;-82
2023/04/16 01:09:10;;;;;;;18.92;14.55;;;7.30;99.90;;;;;;5050778;28;20484;-83
2023/04/16 01:11:36;;;;;;;17.48;14.15;;;7.30;99.90;;;;;;5050591;28;20021;-81
2023/04/16 01:14:02;;;;;;;20.55;14.02;;;7.30;99.90;;;;;;5051480;28;20052;-82
2023/04/16 01:16:28;;;;;;;20.17;14.50;;;7.30;99.90;;;;;;5044899;28;20496;-81
2023/04/16 01:18:53;;;;;;;23.23;14.93;;;7.30;99.90;;;;;;5053374;28;20571;-82
2023/04/16 01:21:19;;;;;;;20.90;13.93;;;7.30;99.90;;;;;;5045874;28;20036;-81
2023/04/16 01:23:45;;;;;;;22.95;13.98;;;7.30;99.90;;;;;;5049014;28;20044;-82
2023/04/16 01:26:10;;;;;;;18.95;14.23;;;7.30;99.90;;;;;;5045033;28;20043;-81
2023/04/16 01:28:36;;;;;;;19.45;13.73;;;7.30;99.90;;;;;;5051192;28;20024;-82
2023/04/16 01:31:01;;;;;;;16.20;12.25;;;7.30;99.90;;;;;;5050209;28;20068;-82
2023/04/16 01:33:27;;;;;;;20.90;13.00;;;7.30;99.90;;;;;;5045289;28;20021;-82
2023/04/16 01:35:52;;;;;;;18.02;13.40;;;7.30;99.90;;;;;;5051946;28;20021;-82
2023/04/16 01:38:18;;;;;;;18.63;12.82;;;7.30;99.90;;;;;;5041781;28;20454;-82
2023/04/16 01:40:44;;;;;;;19.60;13.77;;;7.30;99.90;;;;;;5047038;28;20027;-82
2023/04/16 01:43:10;;;;;;;19.77;13.75;;;7.30;99.90;;;;;;5046644;28;20025;-82
2023/04/16 01:45:35;;;;;;;18.60;12.82;;;7.30;99.90;;;;;;5052698;28;20139;-82
2023/04/16 01:48:02;;;;;;;17.85;13.23;;;7.30;99.90;;;;;;5047934;28;20033;-82
2023/04/16 01:50:29;;;;;;;19.23;13.75;;;7.30;99.90;;;;;;5043392;28;20826;-81
2023/04/16 01:52:54;;;;;;;19.40;13.55;;;7.40;99.90;;;;;;5044380;28;20026;-82
2023/04/16 01:55:20;;;;;;;18.25;13.48;;;7.30;99.90;;;;;;5046558;28;20079;-82
2023/04/16 01:57:45;;;;;;;20.35;14.70;;;7.30;99.90;;;;;;5048965;28;20025;-81
2023/04/16 02:00:11;;;;;;;19.55;15.02;;;7.30;99.90;;;;;;5044847;28;20087;-83
2023/04/16 02:02:37;;;;;;;19.88;14.57;;;7.30;99.90;;;;;;5045017;28;20025;-81
2023/04/16 02:05:02;;;;;;;21.13;15.70;;;7.30;99.90;;;;;;5052215;28;20021;-82
2023/04/16 02:07:30;;;;;;;19.38;14.45;;;7.30;99.90;;;;;;5052159;28;20029;-82
2023/04/16 02:09:56;;;;;;;19.23;14.40;;;7.30;99.90;;;;;;5064577;28;20017;-81
2023/04/16 02:12:22;;;;;;;20.92;15.23;;;7.30;99.90;;;;;;5062541;28;20004;-82
2023/04/16 02:14:48;;;;;;;19.77;15.10;;;7.30;99.90;;;;;;5062997;28;20119;-83
2023/04/16 02:17:14;;;;;;;20.85;16.20;;;7.40;99.90;;;;;;5054945;28;20057;-83
2023/04/16 02:19:40;;;;;;;20.27;15.02;;;7.30;99.90;;;;;;5054292;28;20072;-82
2023/04/16 02:22:06;;;;;;;20.85;14.85;;;7.30;99.90;;;;;;5044134;28;20033;-80
2023/04/16 02:24:31;;;;;;;21.38;16.55;;;7.40;99.90;;;;;;5056851;28;20555;-82
2023/04/16 02:26:57;;;;;;;18.75;15.05;;;7.40;99.90;;;;;;5051590;28;20102;-81
2023/04/16 02:29:22;;;;;;;19.83;15.48;;;7.40;99.90;;;;;;5049171;28;20029;-82
2023/04/16 02:31:48;;;;;;;22.08;16.65;;;7.30;99.90;;;;;;5047294;28;20037;-81
2023/04/16 02:34:14;;;;;;;21.20;15.48;;;7.40;99.90;;;;;;5048072;28;20103;-81
2023/04/16 02:36:39;;;;;;;24.27;17.00;;;7.40;99.90;;;;;;5046823;28;20025;-82
2023/04/16 02:39:05;;;;;;;21.02;15.70;;;7.40;99.90;;;;;;5050793;28;20040;-81
2023/04/16 02:41:31;;;;;;;24.48;16.10;;;7.40;99.90;;;;;;5041252;28;20021;-83
2023/04/16 02:43:56;;;;;;;22.65;16.02;;;7.40;99.90;;;;;;5041129;28;20124;-81
2023/04/16 02:46:22;;;;;;;19.90;15.52;;;7.40;99.90;;;;;;5044850;28;20088;-82
2023/04/16 02:48:47;;;;;;;20.23;15.40;;;7.40;99.90;;;;;;5043827;28;20035;-82
2023/04/16 02:51:13;;;;;;;22.50;15.52;;;7.40;99.90;;;;;;5045456;28;20029;-81
2023/04/16 02:53:39;;;;;;;20.25;15.02;;;7.50;99.90;;;;;;5057860;28;20021;-81
2023/04/16 02:56:05;;;;;;;23.27;14.77;;;7.50;99.90;;;;;;5054060;28;20068;-82
2023/04/16 02:58:31;;;;;;;18.73;14.77;;;7.50;99.90;;;;;;5050922;28;20025;-82
2023/04/16 03:00:56;;;;;;;20.30;15.40;;;7.40;99.90;;;;;;5046049;28;20503;-82
2023/04/16 03:03:22;;;;;;;18.05;14.77;;;7.50;99.90;;;;;;5053014;28;20483;-83
2023/04/16 03:05:48;;;;;;;23.20;15.95;;;7.40;99.90;;;;;;5047199;28;20407;-82
2023/04/16 03:08:13;;;;;;;25.55;15.50;;;7.50;99.90;;;;;;5046474;28;20044;-81
2023/04/16 03:10:40;;;;;;;21.05;15.32;;;7.50;99.90;;;;;;5046967;28;20013;-81
2023/04/16 03:13:06;;;;;;;21.13;15.02;;;7.50;99.90;;;;;;5040810;28;20028;-82
2023/04/16 03:15:32;;;;;;;19.23;15.05;;;7.50;99.90;;;;;;5052487;28;20020;-83
2023/04/16 03:17:58;;;;;;;24.73;15.98;;;7.50;99.90;;;;;;5046461;28;20025;-82
2023/04/16 03:20:24;;;;;;;20.48;15.48;;;7.50;99.90;;;;;;5051576;28;20107;-82
2023/04/16 03:22:53;;;;;;;20.17;15.32;;;7.50;99.90;;;;;;5047114;28;20076;-82
2023/04/16 03:25:18;;;;;;;22.83;15.93;;;7.50;99.90;;;;;;5046764;28;20020;-83
2023/04/16 03:27:44;;;;;;;24.27;15.85;;;7.50;99.90;;;;;;5047570;28;20498;-83
2023/04/16 03:30:11;;;;;;;19.48;13.48;;;7.50;99.90;;;;;;5053593;28;20029;-82
2023/04/16 03:32:37;;;;;;;20.70;14.80;;;7.50;99.90;;;;;;5047024;28;20067;-83
2023/04/16 03:35:03;;;;;;;21.83;15.15;;;7.50;99.90;;;;;;5049704;28;20030;-82
2023/04/16 03:37:29;;;;;;;19.17;14.65;;;7.50;99.90;;;;;;5051865;28;20454;-82
2023/04/16 03:39:55;;;;;;;18.98;14.43;;;7.50;99.90;;;;;;5048993;28;20021;-82
2023/04/16 03:42:20;;;;;;;18.73;15.13;;;7.50;99.90;;;;;;5051968;28;20021;-82
2023/04/16 03:44:46;;;;;;;20.80;14.23;;;7.50;99.90;;;;;;5039540;28;20052;-82
2023/04/16 03:47:11;;;;;;;21.65;14.80;;;7.50;99.90;;;;;;5050889;28;20021;-82
2023/04/16 03:49:37;;;;;;;20.23;15.30;;;7.50;99.90;;;;;;5051926;28;20016;-82
2023/04/16 03:52:02;;;;;;;20.00;13.18;;;7.50;99.90;;;;;;5044930;28;20075;-83
2023/04/16 03:54:28;;;;;;;19.40;15.00;;;7.50;99.90;;;;;;5045027;28;20024;-82
2023/04/16 03:56:53;;;;;;;19.27;14.30;;;7.50;99.90;;;;;;5049782;28;20025;-82
2023/04/16 03:59:19;;;;;;;19.98;14.70;;;7.50;99.90;;;;;;5042316;28;20026;-82
2023/04/16 04:01:45;;;;;;;19.88;14.93;;;7.50;99.90;;;;;;5047870;28;20104;-83
2023/04/16 04:04:10;;;;;;;17.15;13.18;;;7.50;99.90;;;;;;5046101;28;20104;-82
2023/04/16 04:06:36;;;;;;;21.58;14.95;;;7.50;99.90;;;;;;5047480;28;20013;-82
2023/04/16 04:09:01;;;;;;;18.27;14.13;;;7.50;99.90;;;;;;5041732;28;20128;-83
2023/04/16 04:11:27;;;;;;;18.30;14.98;;;7.50;99.90;;;;;;5051299;28;20576;-81
2023/04/16 04:13:53;;;;;;;19.80;14.30;;;7.60;99.90;;;;;;5049128;28;20036;-82
2023/04/16 04:16:18;;;;;;;19.52;14.60;;;7.60;99.90;;;;;;5049634;28;20045;-81
2023/04/16 04:18:44;;;;;;;21.77;14.57;;;7.50;99.90;;;;;;5048185;28;20450;-82
2023/04/16 04:21:09;;;;;;;16.55;13.27;;;7.50;99.90;;;;;;5041313;28;20108;-82
2023/04/16 04:23:36;;;;;;;21.02;15.18;;;7.60;99.90;;;;;;5048000;28;20017;-80
2023/04/16 04:26:04;;;;;;;18.92;14.50;;;7.60;99.90;;;;;;5042057;28;20391;-82
2023/04/16 04:28:30;;;;;;;21.48;14.82;;;7.60;99.90;;;;;;5048148;28;20021;-82
2023/04/16 04:30:57;;;;;;;20.40;14.13;;;7.60;99.90;;;;;;5048584;28;20056;-82
2023/04/16 04:33:22;;;;;;;22.42;15.25;;;7.60;99.90;;;;;;5049953;28;20183;-82
2023/04/16 04:35:48;;;;;;;19.65;14.68;;;7.60;99.90;;;;;;5050287;28;20503;-82
2023/04/16 04:38:13;;;;;;;20.38;13.65;;;7.60;99.90;;;;;;5045190;28;20025;-82
2023/04/16 04:40:39;;;;;;;21.40;15.43;;;7.60;99.90;;;;;;5051060;28;20611;-83
2023/04/16 04:43:04;;;;;;;19.05;14.55;;;7.60;99.90;;;;;;5051664;28;20476;-82
2023/04/16 04:45:30;;;;;;;19.48;14.35;;;7.60;99.90;;;;;;5051018;28;20017;-81
2023/04/16 04:47:56;;;;;;;21.83;15.13;;;7.60;99.90;;;;;;5045887;28;20026;-82
2023/04/16 04:50:21;;;;;;;19.58;14.85;;;7.60;99.90;;;;;;5049347;28;20500;-81
2023/04/16 04:52:47;;;;;;;23.13;15.10;;;7.60;99.90;;;;;;5045224;28;20032;-83
2023/04/16 04:55:14;;;;;;;18.35;13.73;;;7.70;99.90;;;;;;5051550;28;20031;-82
2023/04/16 04:57:40;;;;;;;19.85;15.32;;;7.60;99.90;;;;;;5054272;28;20074;-82
2023/04/16 05:00:06;;;;;;;19.98;15.48;;;7.70;99.90;;;;;;5051361;28;20025;-83
2023/04/16 05:02:32;;;;;;;19.10;15.02;;;7.70;99.90;;;;;;5055029;28;20032;-83
2023/04/16 05:04:58;;;;;;;18.05;14.27;;;7.70;99.90;;;;;;5050260;28;20033;-82
2023/04/16 05:07:24;;;;;;;20.45;14.65;;;7.80;99.90;;;;;;5055462;28;20021;-83
2023/04/16 05:09:49;;;;;;;20.35;15.45;;;7.80;99.90;;;;;;5054139;28;20029;-83
2023/04/16 05:12:15;;;;;;;19.02;15.02;;;7.80;99.90;;;;;;5054647;28;20021;-81
2023/04/16 05:14:40;;;;;;;23.85;14.15;;;7.80;99.90;;;;;;5052864;28;20061;-82
2023/04/16 05:17:06;;;;;;;20.75;15.27;;;7.80;99.90;;;;;;5049313;28;20044;-81
2023/04/16 05:19:32;;;;;;;20.77;14.55;;;7.80;99.90;;;;;;5050806;28;20125;-81
2023/04/16 05:21:58;;;;;;;22.08;16.10;;;7.80;99.90;;;;;;5052608;28;20040;-83
2023/04/16 05:24:23;;;;;;;21.42;14.82;;;7.80;99.90;;;;;;5051278;28;20399;-81
2023/04/16 05:26:49;;;;;;;22.23;15.23;;;7.90;99.90;;;;;;5052418;28;20096;-82
2023/04/16 05:29:15;;;;;;;19.17;14.05;;;7.80;99.90;;;;;;5052892;28;20025;-82
2023/04/16 05:31:40;;;;;;;23.65;15.70;;;7.90;99.90;;;;;;5052027;28;20037;-82
2023/04/16 05:34:06;;;;;;;22.52;15.90;;;7.90;99.90;;;;;;5051740;28;20081;-82
2023/04/16 05:36:31;;;;;;;19.92;14.75;;;7.90;99.90;;;;;;5047182;28;20606;-81
2023/04/16 05:38:57;;;;;;;20.73;14.65;;;7.90;99.90;;;;;;5042830;28;20056;-83
2023/04/16 05:41:23;;;;;;;20.27;14.70;;;7.90;99.90;;;;;;5045367;28;20013;-81
2023/04/16 05:43:48;;;;;;;19.58;13.98;;;7.90;99.90;;;;;;5050875;28;20369;-82
2023/04/16 05:46:14;;;;;;;20.50;15.00;;;8.00;99.90;;;;;;5048674;28;20021;-82
2023/04/16 05:48:39;;;;;;;19.73;15.50;;;8.00;99.90;;;;;;5050770;28;20022;-82
2023/04/16 05:51:05;;;;;;;21.98;15.38;;;8.00;99.90;;;;;;5047996;28;20021;-83
2023/04/16 05:53:30;;;;;;;17.77;14.32;;;8.00;99.90;;;;;;5050814;28;20021;-81
2023/04/16 05:55:56;;;;;;;22.08;15.32;;;8.00;99.90;;;;;;5041373;28;20037;-81
2023/04/16 05:58:21;;;;;;;21.55;15.02;;;8.00;99.90;;;;;;5059217;28;20040;-81
2023/04/16 06:00:47;;;;;;;23.30;15.73;;;8.00;99.90;;;;;;5061559;28;20042;-81
2023/04/16 06:03:13;;;;;;;18.73;14.32;;;8.10;99.90;;;;;;5070449;28;20094;-82
2023/04/16 06:05:38;;;;;;;19.83;14.55;;;8.10;99.90;;;;;;5051463;28;20480;-83
2023/04/16 06:08:04;;;;;;;20.55;15.30;;;8.10;99.90;;;;;;5052512;28;20071;-83
2023/04/16 06:10:29;;;;;;;19.33;14.20;;;8.10;99.90;;;;;;5049019;28;20475;-83
2023/04/16 06:12:55;;;;;;;21.35;14.25;;;8.10;99.90;;;;;;5051009;28;20098;-82
2023/04/16 06:15:20;;;;;;;19.05;13.55;;;8.10;99.90;;;;;;5052282;28;20033;-83
2023/04/16 06:17:46;;;;;;;19.00;14.32;;;8.20;99.90;;;;;;5050728;28;20025;-82
2023/04/16 06:20:12;;;;;;;21.83;15.57;;;8.20;99.90;;;;;;5048816;28;20033;-83
2023/04/16 06:22:37;;;;;;;19.33;14.25;;;8.20;99.90;;;;;;5049376;28;20029;-82
2023/04/16 06:25:03;;;;;;;20.58;13.88;;;8.20;99.90;;;;;;5051360;28;20025;-81
2023/04/16 06:27:30;;;;;;;19.25;14.40;;;8.30;99.90;;;;;;5047615;28;20108;-83
2023/04/16 06:29:56;;;;;;;20.05;14.90;;;8.30;99.90;;;;;;5050171;28;20055;-82
2023/04/16 06:32:21;;;;;;;17.70;13.75;;;8.30;99.90;;;;;;5046737;28;20037;-82
2023/04/16 06:34:47;;;;;;;17.98;13.63;;;8.30;99.90;;;;;;5049507;28;20047;-82
2023/04/16 06:37:12;;;;;;;18.83;13.65;;;8.30;99.90;;;;;;5052183;28;20025;-82
2023/04/16 06:39:38;;;;;;;18.70;13.23;;;8.30;99.90;;;;;;5047151;28;20164;-83
2023/04/16 06:42:04;;;;;;;23.58;14.25;;;8.30;99.90;;;;;;5050602;28;20032;-82
2023/04/16 06:44:29;;;;;;;18.20;13.77;;;8.40;99.90;;;;;;5052973;28;20039;-82
2023/04/16 06:46:55;;;;;;;17.55;13.57;;;8.40;99.90;;;;;;5053223;28;20100;-81
2023/04/16 06:49:20;;;;;;;20.58;14.65;;;8.40;99.90;;;;;;5051041;28;20047;-82
2023/04/16 06:51:46;;;;;;;19.80;14.13;;;8.40;99.90;;;;;;5051222;28;20537;-82
2023/04/16 06:54:12;;;;;;;21.40;13.75;;;8.40;99.90;;;;;;5044106;28;20117;-82
2023/04/16 06:56:37;;;;;;;21.80;14.07;;;8.40;99.90;;;;;;5043815;28;20025;-82
2023/04/16 06:59:03;;;;;;;19.02;13.07;;;8.40;99.90;;;;;;5049248;28;20112;-83
2023/04/16 07:01:30;;;;;;;17.08;13.00;;;8.50;99.90;;;;;;5049939;28;20060;-82
2023/04/16 07:03:56;;;;;;;18.23;13.00;;;8.50;99.90;;;;;;5052517;28;20021;-81
2023/04/16 07:06:22;;;;;;;18.05;13.65;;;8.50;99.90;;;;;;5049456;28;20025;-82
2023/04/16 07:08:47;;;;;;;22.02;12.95;;;8.60;99.90;;;;;;5052216;28;20048;-83
2023/04/16 07:11:13;;;;;;;16.67;13.13;;;8.60;99.90;;;;;;5046263;28;20083;-85
2023/04/16 07:13:39;;;;;;;17.90;13.65;;;8.70;99.90;;;;;;5047701;28;20044;-83
2023/04/16 07:16:04;;;;;;;15.60;12.63;;;8.70;99.90;;;;;;5048449;28;20028;-82
2023/04/16 07:18:33;;;;;;;21.45;13.38;;;8.80;99.90;;;;;;5047920;28;20466;-83
2023/04/16 07:20:58;;;;;;;17.48;12.95;;;8.80;99.90;;;;;;5047510;28;20032;-83
2023/04/16 07:23:24;;;;;;;23.25;13.25;;;8.80;99.90;;;;;;5048509;28;20127;-83
2023/04/16 07:25:50;;;;;;;16.67;13.55;;;8.80;99.90;;;;;;5050043;28;20028;-83
2023/04/16 07:28:16;;;;;;;16.25;13.23;;;8.80;99.90;;;;;;5046181;28;20027;-84
2023/04/16 07:30:42;;;;;;;17.95;12.98;;;8.80;99.90;;;;;;5049293;28;20053;-83
2023/04/16 07:33:08;;;;;;;15.48;12.57;;;8.80;99.90;;;;;;5047523;28;20022;-83
2023/04/16 07:35:33;;;;;;;16.55;12.68;;;8.90;99.90;;;;;;5044453;28;20424;-83
2023/04/16 07:37:59;;;;;;;18.92;12.15;;;8.90;99.90;;;;;;5041713;28;20029;-83
2023/04/16 07:40:25;;;;;;;18.00;12.50;;;9.00;99.90;;;;;;5045339;28;20627;-83
2023/04/16 07:42:50;;;;;;;16.48;12.88;;;9.00;99.90;;;;;;5052369;28;20027;-83
2023/04/16 07:45:17;;;;;;;17.38;12.98;;;9.00;99.90;;;;;;5047620;28;20105;-83
2023/04/16 07:47:42;;;;;;;16.45;13.02;;;9.00;99.90;;;;;;5049447;28;20071;-83
2023/04/16 07:50:08;;;;;;;16.00;12.38;;;9.00;99.90;;;;;;5046635;28;20447;-82
2023/04/16 07:52:34;;;;;;;17.05;13.02;;;9.00;99.90;;;;;;5049651;28;20040;-83
2023/04/16 07:54:59;;;;;;;15.77;11.75;;;9.10;99.90;;;;;;5047251;28;20049;-83
2023/04/16 07:57:25;;;;;;;15.52;12.13;;;9.10;99.90;;;;;;5051148;28;20025;-82
2023/04/16 07:59:50;;;;;;;17.00;12.05;;;9.10;99.90;;;;;;5045630;28;20029;-82
2023/04/16 08:02:16;;;;;;;15.98;11.77;;;9.10;99.90;;;;;;5048822;28;20496;-82
2023/04/16 08:04:42;;;;;;;17.27;11.57;;;9.10;99.90;;;;;;5044392;28;20055;-83
2023/04/16 08:07:08;;;;;;;16.65;11.90;;;9.20;99.90;;;;;;5050406;28;20236;-82
2023/04/16 08:09:35;;;;;;;15.73;11.75;;;9.20;99.90;;;;;;5048958;28;20025;-82
2023/04/16 08:12:01;;;;;;;16.77;11.60;;;9.30;99.90;;;;;;5043629;28;20032;-82
2023/04/16 08:14:27;;;;;;;15.73;11.93;;;9.30;99.90;;;;;;5059403;28;20116;-84
2023/04/16 08:16:52;;;;;;;15.75;12.32;;;9.30;99.90;;;;;;5057069;28;20593;-82
2023/04/16 08:19:18;;;;;;;12.60;10.68;;;9.30;99.90;;;;;;5062962;28;20052;-84
2023/04/16 08:21:44;;;;;;;15.77;11.50;;;9.40;99.90;;;;;;5064367;28;20044;-83
2023/04/16 08:24:10;;;;;;;14.63;11.75;;;9.40;99.90;;;;;;5059372;28;20006;-83
2023/04/16 08:26:35;;;;;;;14.85;11.20;;;9.40;99.90;;;;;;5056998;28;20025;-82
2023/04/16 08:29:01;;;;;;;14.45;10.95;;;9.40;99.90;;;;;;5051526;28;20044;-81
2023/04/16 08:31:27;;;;;;;14.45;11.52;;;9.40;99.90;;;;;;5055154;28;20476;-84
2023/04/16 08:33:52;;;;;;;12.77;10.85;;;9.40;99.90;;;;;;5051833;28;20032;-84
2023/04/16 08:36:18;;;;;;;17.67;12.52;;;9.40;99.90;;;;;;5054749;28;20029;-84
2023/04/16 08:38:43;;;;;;;19.02;11.52;;;9.50;99.90;;;;;;5057423;28;20083;-84
2023/04/16 08:41:12;;;;;;;17.33;11.60;;;9.40;99.90;;;;;;5053745;28;20724;-83
2023/04/16 08:43:41;;;;;;;16.27;12.00;;;9.40;99.90;;;;;;5051320;28;20017;-83
2023/04/16 08:46:07;;;;;;;14.30;11.85;;;9.40;99.90;;;;;;5049060;28;20025;-83
2023/04/16 08:48:34;;;;;;;15.18;11.15;;;9.50;99.90;;;;;;5056094;28;20029;-84
2023/04/16 08:51:00;;;;;;;13.45;10.52;;;9.50;99.90;;;;;;5051182;28;20024;-84
2023/04/16 08:53:37;;;;;;;15.85;11.65;;;9.60;99.90;;;;;;5053475;28;20036;-83
2023/04/16 08:56:04;;;;;;;16.88;11.73;;;9.70;99.90;;;;;;5045403;28;20028;-84
2023/04/16 08:58:33;;;;;;;17.15;12.23;;;9.70;99.90;;;;;;5056836;28;20450;-83
2023/04/16 09:01:01;;;;;;;15.60;11.75;;;9.80;99.90;;;;;;5063104;28;20503;-81
2023/04/16 09:03:28;;;;;;;15.05;10.77;;;9.80;99.90;;;;;;5054439;28;20020;-83
2023/04/16 09:05:56;;;;;;;16.55;10.80;;;9.90;99.90;;;;;;5043778;28;20041;-81
2023/04/16 09:08:22;;;;;;;15.02;10.82;;;9.90;99.90;;;;;;5054985;28;20185;-84
2023/04/16 09:10:49;;;;;;;14.02;10.48;;;10.00;99.90;;;;;;5058822;28;20039;-83
2023/04/16 09:13:16;;;;;;;16.73;11.82;;;10.10;99.90;;;;;;5054596;28;20048;-83
2023/04/16 09:15:43;;;;;;;17.95;11.27;;;10.10;99.90;;;;;;5054748;28;20286;-84
2023/04/16 09:18:10;;;;;;;14.48;10.88;;;10.10;99.90;;;;;;5056586;28;20072;-83
2023/04/16 09:20:37;;;;;;;15.88;11.73;;;10.20;99.90;;;;;;5055317;28;20032;-83
2023/04/16 09:23:02;;;;;;;14.52;10.70;;;10.10;99.90;;;;;;5049926;28;20039;-84
2023/04/16 09:25:33;;;;;;;13.52;10.82;;;10.20;99.90;;;;;;5055432;28;20024;-83
2023/04/16 09:27:59;;;;;;;13.45;10.55;;;10.20;99.90;;;;;;5045625;28;20079;-83
2023/04/16 09:30:26;;;;;;;16.25;11.45;;;10.30;99.90;;;;;;5053904;28;20558;-83
2023/04/16 09:33:11;;;;;;;14.15;11.20;;;10.30;99.90;;;;;;5053966;28;20017;-85
2023/04/16 09:35:47;;;;;;;15.93;11.43;;;10.30;99.90;;;;;;5044448;28;20061;-83
2023/04/16 09:38:13;;;;;;;13.70;11.70;;;10.30;99.90;;;;;;5053526;28;20027;-84
2023/04/16 09:40:39;;;;;;;15.15;10.77;;;10.20;99.90;;;;;;5052723;28;20025;-84
2023/04/16 09:43:16;;;;;;;14.63;10.65;;;10.20;99.90;;;;;;5053662;28;20056;-83
2023/04/16 09:45:52;;;;;;;14.18;11.32;;;10.20;99.90;;;;;;5055049;28;20025;-83
2023/04/16 09:48:28;;;;;;;14.00;10.20;;;10.30;99.90;;;;;;5048179;28;20475;-83
2023/04/16 09:50:54;;;;;;;16.65;11.73;;;10.20;99.90;;;;;;5046988;28;20155;-83
2023/04/16 09:53:25;;;;;;;13.90;11.02;;;10.20;99.90;;;;;;5049711;28;20017;-83
2023/04/16 09:55:51;;;;;;;16.02;11.68;;;10.10;99.90;;;;;;5053221;28;20096;-83
2023/04/16 09:58:23;;;;;;;15.75;12.10;;;10.20;99.90;;;;;;5054767;28;20046;-83
2023/04/16 10:00:49;;;;;;;14.95;11.68;;;10.10;99.90;;;;;;5050457;28;20094;-83
2023/04/16 10:03:14;;;;;;;15.70;11.75;;;10.10;99.90;;;;;;5055084;28;20103;-83
2023/04/16 10:05:40;;;;;;;14.05;11.52;;;10.20;99.90;;;;;;5052351;28;20028;-83
2023/04/16 10:08:13;;;;;;;15.70;11.82;;;10.10;99.90;;;;;;5051394;28;20023;-82
2023/04/16 10:10:39;;;;;;;14.38;11.27;;;10.10;99.90;;;;;;5052354;28;20059;-83
2023/04/16 10:13:05;;;;;;;15.45;10.75;;;10.10;99.90;;;;;;5051980;28;20031;-83
2023/04/16 10:15:31;;;;;;;14.70;11.45;;;10.10;99.90;;;;;;5047537;28;20088;-83
2023/04/16 10:17:57;;;;;;;12.70;10.95;;;10.10;99.90;;;;;;5050313;28;20408;-82
2023/04/16 10:20:23;;;;;;;16.35;11.45;;;10.10;99.90;;;;;;5053820;28;20033;-83
2023/04/16 10:22:49;;;;;;;14.50;10.88;;;10.20;99.90;;;;;;5050378;28;20055;-83
2023/04/16 10:25:16;;;;;;;17.08;11.40;;;10.10;99.90;;;;;;5048688;28;20023;-83
2023/04/16 10:27:42;;;;;;;21.20;11.70;;;10.10;99.90;;;;;;5064427;28;20028;-83
2023/04/16 10:30:09;;;;;;;11.85;10.40;;;10.10;99.90;;;;;;5060854;28;20105;-83
2023/04/16 10:32:36;;;;;;;14.10;11.77;;;10.20;99.90;;;;;;5056953;28;20084;-83
2023/04/16 10:35:03;;;;;;;14.60;12.30;;;10.20;99.90;;;;;;5048692;28;20059;-84
2023/04/16 10:37:32;;;;;;;13.38;10.80;;;10.30;99.90;;;;;;5055220;28;20029;-82
2023/04/16 10:39:58;;;;;;;18.77;12.05;;;10.20;99.90;;;;;;5048442;28;20605;-83
2023/04/16 10:42:26;;;;;;;18.40;12.15;;;10.20;99.90;;;;;;5037845;28;20072;-83
2023/04/16 10:44:51;;;;;;;15.18;11.70;;;10.30;99.90;;;;;;5051819;28;20029;-83
2023/04/16 10:47:17;;;;;;;15.15;12.27;;;10.30;99.90;;;;;;5051397;28;20070;-83
2023/04/16 10:49:43;;;;;;;16.98;12.07;;;10.30;99.90;;;;;;5053776;28;20020;-83
2023/04/16 10:52:15;;;;;;;14.57;11.07;;;10.30;99.90;;;;;;5049893;28;20075;-82
2023/04/16 10:54:41;;;;;;;16.17;11.38;;;10.20;99.90;;;;;;5053423;28;20058;-83
2023/04/16 10:57:17;;;;;;;16.02;12.27;;;10.20;99.90;;;;;;5046969;28;20025;-83
2023/04/16 10:59:43;;;;;;;17.80;13.27;;;10.10;99.90;;;;;;5045169;28;20033;-83
2023/04/16 11:02:13;;;;;;;15.05;12.38;;;10.10;99.90;;;;;;5052197;28;20040;-83
2023/04/16 11:04:43;;;;;;;16.08;11.90;;;10.10;99.90;;;;;;5048529;28;20086;-83
2023/04/16 11:07:17;;;;;;;18.65;12.88;;;10.20;99.90;;;;;;5046469;28;20036;-83
2023/04/16 11:09:46;;;;;;;14.27;11.63;;;10.20;99.90;;;;;;5050097;28;20075;-83
2023/04/16 11:12:13;;;;;;;14.68;12.70;;;10.20;99.90;;;;;;5054019;28;20025;-83
2023/04/16 11:14:40;;;;;;;14.43;12.40;;;10.30;99.90;;;;;;5051051;28;20031;-83
2023/04/16 11:17:06;;;;;;;15.40;12.32;;;10.40;99.90;;;;;;5050159;28;20025;-83
2023/04/16 11:19:32;;;;;;;16.27;11.95;;;10.40;99.90;;;;;;5052123;28;20029;-83
2023/04/16 11:21:58;;;;;;;17.98;12.43;;;10.50;99.90;;;;;;5052396;28;20025;-83
2023/04/16 11:24:28;;;;;;;19.25;12.88;;;10.50;99.90;;;;;;5052353;28;20019;-83
2023/04/16 11:26:54;;;;;;;15.30;12.43;;;10.40;99.90;;;;;;5047245;28;20479;-83
2023/04/16 11:29:20;;;;;;;17.08;13.45;;;10.50;99.90;;;;;;5044183;28;20036;-83
2023/04/16 11:31:53;;;;;;;17.08;12.52;;;10.50;99.90;;;;;;5049779;28;20197;-83
2023/04/16 11:34:19;;;;;;;18.27;12.85;;;10.40;99.90;;;;;;5052295;28;20033;-82
2023/04/16 11:36:50;;;;;;;17.02;12.25;;;10.30;99.90;;;;;;5052852;28;20475;-83
2023/04/16 11:39:15;;;;;;;15.07;12.35;;;10.30;99.90;;;;;;5038514;28;20037;-82
2023/04/16 11:41:48;;;;;;;17.25;13.80;;;10.20;99.90;;;;;;5056037;28;20029;-82
2023/04/16 11:44:27;;;;;;;22.02;13.88;;;10.20;99.90;;;;;;5050007;28;20025;-83
2023/04/16 11:46:55;;;;;;;20.48;13.52;;;10.20;99.90;;;;;;5049361;28;20025;-83
2023/04/16 11:49:29;;;;;;;17.90;12.63;;;10.10;99.90;;;;;;5050564;28;20663;-82
2023/04/16 11:51:56;;;;;;;21.48;13.65;;;10.10;99.90;;;;;;5050924;28;20119;-83
2023/04/16 11:54:23;;;;;;;19.85;12.77;;;10.00;99.90;;;;;;5052039;28;20037;-83
2023/04/16 11:56:52;;;;;;;18.70;12.90;;;10.00;99.90;;;;;;5053917;28;20104;-83
2023/04/16 11:59:22;;;;;;;18.80;12.90;;;10.00;99.90;;;;;;5046133;28;20029;-82
2023/04/16 12:01:54;;;;;;;17.42;12.75;;;9.90;99.90;;;;;;5050272;28;20033;-82
2023/04/16 12:04:23;;;;;;;16.35;11.95;;;10.00;99.90;;;;;;5044247;28;20052;-82
2023/04/16 12:07:12;;;;;;;17.98;12.40;;;10.10;99.90;;;;;;5051133;28;20468;-83
2023/04/16 12:09:42;;;;;;;15.38;12.50;;;10.00;99.90;;;;;;5047041;28;20025;-84
2023/04/16 12:12:29;;;;;;;13.63;12.07;;;10.10;99.90;;;;;;5044803;28;20029;-82
2023/04/16 12:14:56;;;;;;;;;;;10.10;99.90;;;;;;5047721;28;20025;-82
2023/04/16 12:17:22;;;;;;;;;;;10.10;99.90;;;;;;5048047;28;19943;-82
2023/04/16 12:19:57;;;;;;;16.60;12.18;;;10.10;99.90;;;;;;5043747;28;19917;-82
2023/04/16 12:22:33;;;;;;;14.65;12.43;;;10.20;99.90;;;;;;5058105;28;20029;-80
2023/04/16 12:25:01;;;;;;;17.35;11.77;;;10.40;99.90;;;;;;5054249;28;20041;-82
2023/04/16 12:27:44;;;;;;;15.55;11.80;;;10.40;99.90;;;;;;5043605;28;20507;-82
2023/04/16 12:30:10;;;;;;;15.57;12.05;;;10.60;99.90;;;;;;5050922;28;20029;-82
2023/04/16 12:32:36;;;;;;;16.10;12.55;;;10.60;99.90;;;;;;5051907;28;20028;-82